Irati, Brazil
Current Conditions -  °F | °C
As of 7:00 AM on Wednesday 22 Oct 2014 (Local Time) from SBBI Reporting Station
Drizzle Drizzle  
Wind Chill: 55°   Ceiling: 500
Heat Index: 55°   Visibility: 1.8mi
Dew Point: 52°   Wind: 6mph
Humidity: 88%   Direction: 100°E
Pressure: 30.21"   Gusts: NA
Location:  25.47°S, 50.66°W
Report Text: SBBI 220900Z 10005KT 3000 -DZ BKN005 OVC007 13/11 Q1023
Loading
Personal Weather Stations






























Interactive Weather Map
Tropical Storm Tracking
New forecast layout! Learn more

10-Day Weather Forecast

Advertisements
Track Severe Weather on mobile